createdAt,value
2023-02-26T00:00:13.138Z,101646.47
2023-02-26T00:02:39.727Z,101616.97
2023-02-26T00:05:07.023Z,101650.09
2023-02-26T00:07:33.793Z,101647.97
2023-02-26T00:10:03.995Z,101623.03
2023-02-26T00:12:31.106Z,101639.13
2023-02-26T00:14:58.094Z,101644.22
2023-02-26T00:17:39.895Z,101665.06
2023-02-26T00:20:07.411Z,101598.22
2023-02-26T00:22:34.488Z,101653.47
2023-02-26T00:25:01.130Z,101644.47
2023-02-26T00:27:27.724Z,101554.47
2023-02-26T00:29:54.646Z,101558.66
2023-02-26T00:32:21.561Z,101650.16
2023-02-26T00:34:49.038Z,101635.34
2023-02-26T00:37:24.637Z,101699.50
2023-02-26T00:40:29.445Z,101678.94
2023-02-26T00:42:56.450Z,101702.09
2023-02-26T00:45:23.396Z,101688.22
2023-02-26T00:47:55.968Z,101687.69
2023-02-26T00:50:23.658Z,101707.78
2023-02-26T00:53:20.681Z,101690.09
2023-02-26T00:55:47.230Z,101685.78
2023-02-26T00:58:13.918Z,101696.56
2023-02-26T01:00:40.771Z,101709.47
2023-02-26T01:03:07.877Z,101697.59
2023-02-26T01:05:35.378Z,101693.97
2023-02-26T01:08:30.721Z,101629.63
2023-02-26T01:10:57.678Z,101672.22
2023-02-26T01:13:24.639Z,101674.03
2023-02-26T01:15:58.846Z,101681.50
2023-02-26T01:18:30.059Z,101601.97
2023-02-26T01:21:03.536Z,101597.78
2023-02-26T01:23:35.709Z,101611.72
2023-02-26T01:26:10.506Z,101710.94
2023-02-26T01:28:37.385Z,101603.09
2023-02-26T01:31:11.198Z,101570.72
2023-02-26T01:33:47.274Z,101605.59
2023-02-26T01:36:21.264Z,101598.78
2023-02-26T01:39:05.970Z,101719.97
2023-02-26T01:41:44.085Z,101638.63
2023-02-26T01:44:19.321Z,101719.38
2023-02-26T01:47:02.130Z,101701.41
2023-02-26T01:49:30.194Z,101698.31
2023-02-26T01:52:00.584Z,101625.03
2023-02-26T01:54:35.912Z,101723.00
2023-02-26T01:57:08.235Z,101668.31
2023-02-26T01:59:43.076Z,101708.88
2023-02-26T02:02:11.818Z,101708.78
2023-02-26T02:04:40.535Z,101733.38
2023-02-26T02:07:07.327Z,101747.44
2023-02-26T02:09:34.697Z,101679.22
2023-02-26T02:12:32.530Z,101745.41
2023-02-26T02:15:12.639Z,101759.25
2023-02-26T02:17:45.646Z,101759.13
2023-02-26T02:20:29.719Z,101761.28
2023-02-26T02:23:10.849Z,101761.41
2023-02-26T02:26:14.246Z,101772.63
2023-02-26T02:29:05.259Z,101756.75
2023-02-26T02:31:37.567Z,101743.16
2023-02-26T02:34:16.434Z,101717.31
2023-02-26T02:37:01.939Z,101748.81
2023-02-26T02:39:34.442Z,101683.66
2023-02-26T02:42:06.379Z,101794.84
2023-02-26T02:44:39.132Z,101678.53
2023-02-26T02:47:09.620Z,101762.66
2023-02-26T02:49:51.470Z,101797.69
2023-02-26T02:52:25.247Z,101693.84
2023-02-26T02:55:17.299Z,101804.03
2023-02-26T02:57:50.336Z,101781.69
2023-02-26T03:00:21.129Z,101790.63
2023-02-26T03:03:09.377Z,101814.22
2023-02-26T03:05:36.007Z,101793.81
2023-02-26T03:08:07.398Z,101795.94
2023-02-26T03:10:35.023Z,101736.16
2023-02-26T03:13:01.820Z,101702.72
2023-02-26T03:16:15.050Z,101711.69
2023-02-26T03:19:01.061Z,101724.25
2023-02-26T03:21:40.337Z,101844.69
2023-02-26T03:24:28.608Z,101731.91
2023-02-26T03:27:07.610Z,101809.25
2023-02-26T03:30:00.763Z,101845.09
2023-02-26T03:32:32.295Z,101845.75
2023-02-26T03:35:07.299Z,101856.63
2023-02-26T03:37:39.816Z,101735.22
2023-02-26T03:40:12.063Z,101843.69
2023-02-26T03:42:48.824Z,101852.53
2023-02-26T03:45:24.194Z,101861.34
2023-02-26T03:47:55.921Z,101762.72
2023-02-26T03:50:35.529Z,101873.53
2023-02-26T03:53:28.153Z,101752.81
2023-02-26T03:56:28.804Z,101861.84
2023-02-26T03:59:01.262Z,101833.66
2023-02-26T04:02:18.245Z,101835.03
2023-02-26T04:04:59.163Z,101869.69
2023-02-26T04:07:26.213Z,101850.00
2023-02-26T04:09:53.302Z,101859.97
2023-02-26T04:12:25.700Z,101882.88
2023-02-26T04:14:55.459Z,101798.72
2023-02-26T04:17:22.272Z,101875.53
2023-02-26T04:19:49.085Z,101900.47
2023-02-26T04:22:16.051Z,101845.75
2023-02-26T04:24:42.815Z,101852.59
2023-02-26T04:27:10.345Z,101894.53
2023-02-26T04:29:37.621Z,101802.19
2023-02-26T04:32:04.410Z,101904.94
2023-02-26T04:34:31.342Z,101885.09
2023-02-26T04:36:59.360Z,101761.59
2023-02-26T04:39:26.098Z,101817.53
2023-02-26T04:41:52.763Z,101874.13
2023-02-26T04:44:19.652Z,101899.84
2023-02-26T04:46:46.273Z,101900.84
2023-02-26T04:49:13.053Z,101886.84
2023-02-26T04:51:43.234Z,101784.53
2023-02-26T04:54:11.657Z,101859.06
2023-02-26T04:56:38.295Z,101786.00
2023-02-26T04:59:05.156Z,101923.72
2023-02-26T05:01:31.794Z,101893.06
2023-02-26T05:03:59.397Z,101847.88
2023-02-26T05:06:26.316Z,101833.59
2023-02-26T05:08:53.235Z,101920.41
2023-02-26T05:11:20.386Z,101944.44
2023-02-26T05:13:47.778Z,101823.69
2023-02-26T05:16:14.505Z,101809.16
2023-02-26T05:18:41.518Z,101808.38
2023-02-26T05:21:08.321Z,101958.69
2023-02-26T05:23:34.952Z,101901.09
2023-02-26T05:26:01.909Z,101929.22
2023-02-26T05:28:28.538Z,101911.13
2023-02-26T05:30:57.418Z,101973.28
2023-02-26T05:33:24.786Z,101986.44
2023-02-26T05:35:51.520Z,101935.59
2023-02-26T05:38:18.170Z,101943.78
2023-02-26T05:40:44.842Z,101958.31
2023-02-26T05:43:11.549Z,101982.28
2023-02-26T05:45:38.162Z,101844.19
2023-02-26T05:48:04.847Z,101956.59
2023-02-26T05:50:31.475Z,101996.88
2023-02-26T05:52:58.229Z,101984.09
2023-02-26T05:55:25.046Z,101953.94
2023-02-26T05:57:51.735Z,101962.22
2023-02-26T06:00:18.718Z,101932.53
2023-02-26T06:02:45.301Z,101996.16
2023-02-26T06:05:11.926Z,101939.63
2023-02-26T06:07:38.532Z,101901.50
2023-02-26T06:10:05.978Z,101998.00
2023-02-26T06:12:32.605Z,101971.38
2023-02-26T06:14:59.143Z,102022.28
2023-02-26T06:17:25.942Z,101964.78
2023-02-26T06:19:52.567Z,101984.34
2023-02-26T06:22:20.105Z,101981.31
2023-02-26T06:24:46.764Z,101966.34
2023-02-26T06:27:13.403Z,101952.53
2023-02-26T06:29:40.143Z,102006.84
2023-02-26T06:32:06.905Z,102046.97
2023-02-26T06:34:33.716Z,102028.19
2023-02-26T06:37:00.396Z,102021.69
2023-02-26T06:39:27.014Z,102007.88
2023-02-26T06:41:53.800Z,102031.22
2023-02-26T06:44:20.387Z,101925.13
2023-02-26T06:46:47.032Z,101965.75
2023-02-26T06:49:13.641Z,102024.31
2023-02-26T06:51:40.678Z,102038.50
2023-02-26T06:54:07.254Z,102083.06
2023-02-26T06:56:33.879Z,102101.69
2023-02-26T06:59:01.341Z,102056.00
2023-02-26T07:01:27.964Z,102069.41
2023-02-26T07:03:54.778Z,102081.00
2023-02-26T07:06:27.848Z,102110.13
2023-02-26T07:08:55.239Z,102110.84
2023-02-26T07:11:22.690Z,102134.25
2023-02-26T07:13:49.454Z,102114.00
2023-02-26T07:16:16.044Z,102090.81
2023-02-26T07:18:42.657Z,102124.72
2023-02-26T07:21:09.223Z,102155.19
2023-02-26T07:23:35.780Z,102132.66
2023-02-26T07:26:02.917Z,102170.94
2023-02-26T07:28:29.562Z,102163.81
2023-02-26T07:30:56.962Z,102100.84
2023-02-26T07:33:24.973Z,102156.38
2023-02-26T07:35:51.560Z,102139.63
2023-02-26T07:38:19.673Z,102171.78
2023-02-26T07:40:47.055Z,102161.06
2023-02-26T07:43:14.076Z,102060.41
2023-02-26T07:45:40.812Z,102119.91
2023-02-26T07:48:07.648Z,102180.28
2023-02-26T07:50:34.325Z,102158.84
2023-02-26T07:53:00.916Z,102152.09
2023-02-26T07:55:28.457Z,102113.88
2023-02-26T07:58:04.022Z,102172.81
2023-02-26T08:00:30.661Z,102151.69
2023-02-26T08:02:57.306Z,102158.41
2023-02-26T08:05:23.902Z,102154.38
2023-02-26T08:07:50.490Z,102167.94
2023-02-26T08:10:17.413Z,102161.47
2023-02-26T08:12:43.981Z,102153.22
2023-02-26T08:15:14.282Z,102147.28
2023-02-26T08:17:41.432Z,102194.56
2023-02-26T08:20:09.219Z,102172.28
2023-02-26T08:22:35.795Z,102175.16
2023-02-26T08:25:02.447Z,102175.84
2023-02-26T08:27:29.009Z,102198.09
2023-02-26T08:29:55.639Z,102187.31
2023-02-26T08:32:23.054Z,102183.16
2023-02-26T08:34:49.786Z,102205.97
2023-02-26T08:37:16.406Z,102115.94
2023-02-26T08:39:43.002Z,102198.13
2023-02-26T08:42:11.208Z,102206.97
2023-02-26T08:44:37.782Z,102226.53
2023-02-26T08:47:04.393Z,102197.81
2023-02-26T08:49:31.105Z,102244.59
2023-02-26T08:51:57.848Z,102202.78
2023-02-26T08:54:25.045Z,102215.63
2023-02-26T08:56:53.419Z,102227.53
2023-02-26T08:59:20.074Z,102247.41
2023-02-26T09:01:46.676Z,102217.03
2023-02-26T09:04:13.397Z,102224.66
2023-02-26T09:06:40.053Z,102216.09
2023-02-26T09:09:06.773Z,102226.28
2023-02-26T09:11:34.251Z,102204.16
2023-02-26T09:14:02.308Z,102264.09
2023-02-26T09:16:30.053Z,102247.59
2023-02-26T09:18:57.560Z,102244.31
2023-02-26T09:21:25.238Z,102269.94
2023-02-26T09:23:51.961Z,102260.03
2023-02-26T09:26:18.683Z,102261.66
2023-02-26T09:28:45.342Z,102263.38
2023-02-26T09:31:11.941Z,102299.88
2023-02-26T09:33:38.857Z,102283.94
2023-02-26T09:36:05.879Z,102207.38
2023-02-26T09:38:32.381Z,102258.78
2023-02-26T09:41:03.587Z,102278.44
2023-02-26T09:43:55.071Z,102307.31
2023-02-26T09:46:50.714Z,102313.66
2023-02-26T09:49:49.678Z,102309.94
2023-02-26T09:52:27.977Z,102318.16
2023-02-26T09:55:00.356Z,102136.75
2023-02-26T09:57:34.829Z,102246.66
2023-02-26T10:00:07.189Z,102283.47
2023-02-26T10:02:55.577Z,102311.03
2023-02-26T10:05:40.946Z,102333.25
2023-02-26T10:08:17.973Z,102301.19
2023-02-26T10:10:58.143Z,102344.69
2023-02-26T10:13:56.485Z,102350.22
2023-02-26T10:16:28.013Z,102289.56
2023-02-26T10:19:30.844Z,102300.75
2023-02-26T10:22:05.931Z,102305.44
2023-02-26T10:24:46.414Z,102333.97
2023-02-26T10:27:16.337Z,102335.91
2023-02-26T10:29:58.174Z,102343.66
2023-02-26T10:32:43.160Z,102275.75
2023-02-26T10:35:15.413Z,102331.44
2023-02-26T10:37:41.967Z,102354.91
2023-02-26T10:40:47.233Z,102321.66
2023-02-26T10:43:19.387Z,102342.66
2023-02-26T10:46:00.897Z,102365.31
2023-02-26T10:48:52.627Z,102308.97
2023-02-26T10:51:22.645Z,102242.22
2023-02-26T10:53:55.332Z,102355.47
2023-02-26T10:56:26.926Z,102319.50
2023-02-26T10:58:54.889Z,102320.66
2023-02-26T11:01:24.542Z,102333.84
2023-02-26T11:03:57.863Z,102312.03
2023-02-26T11:06:29.998Z,102267.47
2023-02-26T11:08:59.098Z,102249.25
2023-02-26T11:11:46.922Z,102346.31
2023-02-26T11:14:15.091Z,102347.22
2023-02-26T11:16:46.522Z,102318.72
2023-02-26T11:19:15.623Z,102250.84
2023-02-26T11:21:46.569Z,102326.63
2023-02-26T11:24:19.470Z,102333.34
2023-02-26T11:26:49.359Z,102317.09
2023-02-26T11:29:19.652Z,102251.06
2023-02-26T11:31:55.525Z,102337.69
2023-02-26T11:34:24.924Z,102284.25
2023-02-26T11:36:55.829Z,102301.94
2023-02-26T11:39:25.296Z,102329.78
2023-02-26T11:41:56.690Z,102318.00
2023-02-26T11:44:32.223Z,102348.84
2023-02-26T11:47:02.607Z,102302.97
2023-02-26T11:49:29.537Z,102324.03
2023-02-26T11:52:27.823Z,102302.94
2023-02-26T11:55:00.701Z,102311.97
2023-02-26T11:57:29.857Z,102325.91
2023-02-26T12:00:00.461Z,102326.72
2023-02-26T12:02:32.673Z,102311.34
2023-02-26T12:05:02.558Z,102307.31
2023-02-26T12:07:30.462Z,102309.03
2023-02-26T12:09:57.046Z,102264.75
2023-02-26T12:12:50.903Z,102319.44
2023-02-26T12:15:26.167Z,102318.72
2023-02-26T12:18:07.085Z,102323.00
2023-02-26T12:20:45.726Z,102334.06
2023-02-26T12:23:36.659Z,102342.16
2023-02-26T12:26:35.503Z,102328.78
2023-02-26T12:29:08.069Z,102329.72
2023-02-26T12:31:43.711Z,102334.44
2023-02-26T12:34:21.174Z,102325.25
2023-02-26T12:37:06.293Z,102323.28
2023-02-26T12:40:09.308Z,102317.00
2023-02-26T12:43:08.347Z,102287.81
2023-02-26T12:46:31.693Z,102310.81
2023-02-26T12:49:16.185Z,102301.78
2023-02-26T12:51:54.489Z,102306.63
2023-02-26T12:55:06.250Z,102309.28
2023-02-26T12:57:51.560Z,102304.00
2023-02-26T13:00:42.482Z,102277.63
2023-02-26T13:03:11.742Z,102294.50
2023-02-26T13:05:41.709Z,102297.91
2023-02-26T13:08:41.215Z,102311.94
2023-02-26T13:11:34.890Z,102325.63
2023-02-26T13:14:16.450Z,102289.81
2023-02-26T13:17:01.182Z,102310.56
2023-02-26T13:19:48.554Z,102311.13
2023-02-26T13:22:29.506Z,102315.03
2023-02-26T13:25:20.582Z,102304.69
2023-02-26T13:27:48.708Z,102312.00
2023-02-26T13:30:21.127Z,102313.66
2023-02-26T13:32:50.778Z,102304.44
2023-02-26T13:35:19.735Z,102263.69
2023-02-26T13:37:51.278Z,102303.63
2023-02-26T13:40:48.919Z,102326.19
2023-02-26T13:43:42.462Z,102319.69
2023-02-26T13:46:16.430Z,102309.91
2023-02-26T13:48:53.142Z,102308.28
2023-02-26T13:51:37.902Z,102317.03
2023-02-26T13:54:17.261Z,102313.53
2023-02-26T13:56:46.809Z,102237.78
2023-02-26T13:59:13.594Z,102306.25
2023-02-26T14:01:46.811Z,102310.41
2023-02-26T14:04:19.141Z,102303.22
2023-02-26T14:06:48.811Z,102258.50
2023-02-26T14:09:21.450Z,102292.06
2023-02-26T14:12:01.084Z,102316.66
2023-02-26T14:14:54.024Z,102222.59
2023-02-26T14:17:37.971Z,102306.38
2023-02-26T14:20:35.364Z,102303.72
2023-02-26T14:23:09.524Z,102315.28
2023-02-26T14:25:48.420Z,102235.44
2023-02-26T14:28:24.929Z,102306.44
2023-02-26T14:31:13.857Z,102305.81
2023-02-26T14:33:49.003Z,102302.81
2023-02-26T14:36:21.335Z,102264.84
2023-02-26T14:38:50.220Z,102267.25
2023-02-26T14:41:33.102Z,102295.19
2023-02-26T14:44:06.628Z,102309.31
2023-02-26T14:46:35.480Z,102231.88
2023-02-26T14:49:02.363Z,102299.56
2023-02-26T14:51:41.030Z,102308.59
2023-02-26T14:54:21.082Z,102281.81
2023-02-26T14:57:29.708Z,102332.06
2023-02-26T15:00:13.148Z,102273.41
2023-02-26T15:03:01.802Z,102295.88
2023-02-26T15:06:00.095Z,102246.88
2023-02-26T15:08:42.554Z,102255.34
2023-02-26T15:11:39.119Z,102328.16
2023-02-26T15:14:08.729Z,102337.06
2023-02-26T15:17:09.380Z,102327.28
2023-02-26T15:20:04.391Z,102321.00
2023-02-26T15:23:01.572Z,102338.31
2023-02-26T15:25:38.817Z,102332.59
2023-02-26T15:28:10.927Z,102307.69
2023-02-26T15:30:37.704Z,102305.63
2023-02-26T15:33:10.897Z,102310.66
2023-02-26T15:35:37.526Z,102291.31
2023-02-26T15:38:04.859Z,102268.13
2023-02-26T15:40:35.227Z,102332.31
2023-02-26T15:43:02.917Z,102342.09
2023-02-26T15:45:42.728Z,102338.50
2023-02-26T15:48:42.544Z,102330.97
2023-02-26T15:51:12.495Z,102284.41
2023-02-26T15:53:49.018Z,102329.88
2023-02-26T15:56:24.433Z,102261.25
2023-02-26T15:58:59.553Z,102340.94
2023-02-26T16:01:29.554Z,102316.56
2023-02-26T16:04:02.914Z,102260.66
2023-02-26T16:06:40.417Z,102363.84
2023-02-26T16:09:09.129Z,102329.81
2023-02-26T16:11:39.421Z,102343.16
2023-02-26T16:14:07.847Z,102334.88
2023-02-26T16:16:42.425Z,102354.22
2023-02-26T16:19:15.300Z,102333.13
2023-02-26T16:21:43.108Z,102329.81
2023-02-26T16:24:16.898Z,102361.13
2023-02-26T16:26:49.074Z,102360.50
2023-02-26T16:29:19.245Z,102281.97
2023-02-26T16:31:51.242Z,102379.50
2023-02-26T16:34:40.242Z,102390.88
2023-02-26T16:37:25.244Z,102396.63
2023-02-26T16:40:11.676Z,102389.16
2023-02-26T16:42:50.500Z,102405.78
2023-02-26T16:45:37.503Z,102406.31
2023-02-26T16:48:11.976Z,102272.56
2023-02-26T16:50:38.727Z,102383.13
2023-02-26T16:53:20.050Z,102382.28
2023-02-26T16:55:55.715Z,102345.34
2023-02-26T16:58:24.161Z,102345.72
2023-02-26T17:00:59.933Z,102423.47
2023-02-26T17:03:27.145Z,102417.94
2023-02-26T17:06:02.246Z,102429.19
2023-02-26T17:08:36.380Z,102393.81
2023-02-26T17:11:07.268Z,102332.28
2023-02-26T17:13:35.530Z,102354.72
2023-02-26T17:16:04.305Z,102369.94
2023-02-26T17:18:31.763Z,102444.44
2023-02-26T17:21:04.081Z,102438.56
2023-02-26T17:23:36.796Z,102440.25
2023-02-26T17:26:04.637Z,102422.53
2023-02-26T17:28:40.359Z,102424.56
2023-02-26T17:31:07.682Z,102378.09
2023-02-26T17:33:35.217Z,102423.75
2023-02-26T17:36:04.173Z,102428.66
2023-02-26T17:38:33.414Z,102454.78
2023-02-26T17:41:00.732Z,102437.16
2023-02-26T17:43:28.012Z,102436.28
2023-02-26T17:45:54.750Z,102347.03
2023-02-26T17:48:22.130Z,102454.53
2023-02-26T17:50:52.245Z,102485.63
2023-02-26T17:53:20.650Z,102409.53
2023-02-26T17:55:49.412Z,102476.28
2023-02-26T17:58:26.822Z,102475.81
2023-02-26T18:00:54.023Z,102437.06
2023-02-26T18:03:22.446Z,102474.19
2023-02-26T18:05:50.846Z,102482.59
2023-02-26T18:08:22.647Z,102504.00
2023-02-26T18:10:50.403Z,102433.41
2023-02-26T18:13:16.959Z,102473.84
2023-02-26T18:15:43.592Z,102468.03
2023-02-26T18:18:14.814Z,102504.28
2023-02-26T18:20:42.179Z,102476.94
2023-02-26T18:23:13.497Z,102459.06
2023-02-26T18:25:41.632Z,102504.75
2023-02-26T18:28:15.616Z,102404.75
2023-02-26T18:30:44.129Z,102386.19
2023-02-26T18:33:12.132Z,102500.88
2023-02-26T18:35:45.701Z,102462.16
2023-02-26T18:38:17.906Z,102506.13
2023-02-26T18:40:45.780Z,102415.34
2023-02-26T18:43:12.713Z,102497.25
2023-02-26T18:45:40.765Z,102511.38
2023-02-26T18:48:09.214Z,102513.44
2023-02-26T18:50:35.859Z,102499.06
2023-02-26T18:53:02.681Z,102450.75
2023-02-26T18:55:29.718Z,102520.72
2023-02-26T18:57:57.032Z,102498.59
2023-02-26T19:00:23.812Z,102509.78
2023-02-26T19:02:50.640Z,102486.41
2023-02-26T19:05:18.499Z,102519.22
2023-02-26T19:07:45.178Z,102516.16
2023-02-26T19:10:14.672Z,102497.13
2023-02-26T19:12:42.074Z,102524.59
2023-02-26T19:15:10.204Z,102503.84
2023-02-26T19:17:36.861Z,102520.47
2023-02-26T19:20:04.010Z,102536.41
2023-02-26T19:22:30.806Z,102395.59
2023-02-26T19:24:57.482Z,102534.78
2023-02-26T19:27:24.297Z,102522.25
2023-02-26T19:29:51.022Z,102435.56
2023-02-26T19:32:17.930Z,102529.09
2023-02-26T19:34:44.635Z,102498.34
2023-02-26T19:37:11.422Z,102506.97
2023-02-26T19:39:38.720Z,102524.53
2023-02-26T19:42:05.646Z,102563.75
2023-02-26T19:44:32.553Z,102511.88
2023-02-26T19:46:59.659Z,102427.91
2023-02-26T19:49:26.431Z,102521.06
2023-02-26T19:51:53.465Z,102536.81
2023-02-26T19:54:20.372Z,102537.38
2023-02-26T19:56:49.488Z,102543.19
2023-02-26T19:59:16.361Z,102517.66
2023-02-26T20:01:43.895Z,102542.66
2023-02-26T20:04:10.693Z,102556.22
2023-02-26T20:06:37.401Z,102559.63
2023-02-26T20:09:07.101Z,102566.44
2023-02-26T20:11:34.644Z,102491.66
2023-02-26T20:14:02.392Z,102545.13
2023-02-26T20:16:29.043Z,102459.09
2023-02-26T20:18:55.651Z,102565.31
2023-02-26T20:21:23.313Z,102547.25
2023-02-26T20:23:50.041Z,102465.75
2023-02-26T20:26:16.684Z,102574.81
2023-02-26T20:28:43.397Z,102581.16
2023-02-26T20:31:10.817Z,102562.50
2023-02-26T20:33:39.378Z,102592.56
2023-02-26T20:36:08.264Z,102567.94
2023-02-26T20:38:35.133Z,102568.97
2023-02-26T20:41:02.123Z,102486.75
2023-02-26T20:43:28.982Z,102599.13
2023-02-26T20:45:56.584Z,102486.88
2023-02-26T20:48:24.010Z,102509.25
2023-02-26T20:50:53.412Z,102585.44
2023-02-26T20:53:21.054Z,102496.19
2023-02-26T20:55:48.054Z,102510.66
2023-02-26T20:58:14.792Z,102613.19
2023-02-26T21:00:41.538Z,102511.38
2023-02-26T21:03:08.513Z,102510.16
2023-02-26T21:05:35.585Z,102595.16
2023-02-26T21:08:05.359Z,102458.53
2023-02-26T21:10:32.725Z,102619.09
2023-02-26T21:12:59.822Z,102624.00
2023-02-26T21:15:26.800Z,102616.88
2023-02-26T21:17:53.419Z,102502.25
2023-02-26T21:20:22.130Z,102618.00
2023-02-26T21:22:49.546Z,102513.28
2023-02-26T21:25:17.082Z,102576.94
2023-02-26T21:27:44.213Z,102611.16
2023-02-26T21:30:12.045Z,102642.88
2023-02-26T21:32:39.658Z,102606.47
2023-02-26T21:35:08.004Z,102612.75
2023-02-26T21:37:34.985Z,102652.31
2023-02-26T21:40:01.598Z,102580.91
2023-02-26T21:42:28.315Z,102645.03
2023-02-26T21:44:54.911Z,102634.84
2023-02-26T21:47:21.436Z,102634.06
2023-02-26T21:49:48.122Z,102600.78
2023-02-26T21:52:15.124Z,102634.59
2023-02-26T21:54:41.709Z,102541.84
2023-02-26T21:57:08.896Z,102536.22
2023-02-26T21:59:35.527Z,102650.00
2023-02-26T22:02:02.827Z,102648.06
2023-02-26T22:04:29.912Z,102632.28
2023-02-26T22:06:56.738Z,102620.00
2023-02-26T22:09:23.290Z,102666.84
2023-02-26T22:11:49.903Z,102587.75
2023-02-26T22:14:16.998Z,102570.25
2023-02-26T22:16:43.718Z,102530.97
2023-02-26T22:19:10.362Z,102619.84
2023-02-26T22:21:36.881Z,102593.84
2023-02-26T22:24:05.196Z,102629.13
2023-02-26T22:26:31.875Z,102663.97
2023-02-26T22:29:00.525Z,102645.28
2023-02-26T22:31:31.874Z,102539.59
2023-02-26T22:33:59.940Z,102567.94
2023-02-26T22:36:27.506Z,102556.69
2023-02-26T22:38:54.215Z,102654.91
2023-02-26T22:41:20.784Z,102621.31
2023-02-26T22:43:47.504Z,102516.31
2023-02-26T22:46:14.099Z,102643.75
2023-02-26T22:48:40.826Z,102663.59
2023-02-26T22:51:07.431Z,102651.34
2023-02-26T22:53:33.933Z,102657.34
2023-02-26T22:56:00.586Z,102597.50
2023-02-26T22:58:27.427Z,102661.00
2023-02-26T23:01:02.526Z,102677.69
2023-02-26T23:03:29.749Z,102660.97
2023-02-26T23:05:56.974Z,102671.84
2023-02-26T23:08:23.573Z,102668.56
2023-02-26T23:10:50.178Z,102678.97
2023-02-26T23:13:16.827Z,102674.03
2023-02-26T23:15:43.742Z,102680.03
2023-02-26T23:18:10.415Z,102643.03
2023-02-26T23:20:36.991Z,102473.28
2023-02-26T23:23:03.849Z,102553.44
2023-02-26T23:25:30.939Z,102646.88
2023-02-26T23:27:57.532Z,102658.84
2023-02-26T23:30:24.399Z,102653.91
2023-02-26T23:32:51.042Z,102683.19
2023-02-26T23:35:17.644Z,102600.59
2023-02-26T23:37:44.247Z,102546.63
2023-02-26T23:40:14.474Z,102563.22
2023-02-26T23:42:42.546Z,102661.06
2023-02-26T23:45:10.469Z,102649.53
2023-02-26T23:47:37.228Z,102635.44
2023-02-26T23:50:04.947Z,102573.44
2023-02-26T23:52:31.793Z,102662.25
2023-02-26T23:54:58.737Z,102596.13
2023-02-26T23:57:25.578Z,102663.25
2023-02-26T23:59:52.359Z,102661.84
